Time;durP1;ratioP1;P1;durP2;ratioP2;P2;SDS_P1;SDS_P2;PMS_P1;PMS_P2;Temp;Humidity;BMP_temperature;BMP_pressure;BME280_temperature;BME280_humidity;BME280_pressure;Samples;Min_cycle;Max_cycle;Signal;HPM_P1;HPM_P2
2022/06/28 00:00:46;;;;;;;10.50;5.40;;;16.80;99.90;;;;;;5050316;28;20543;-67
2022/06/28 00:03:12;;;;;;;6.93;4.70;;;16.90;99.90;;;;;;5050626;28;20480;-67
2022/06/28 00:05:39;;;;;;;8.20;5.53;;;16.90;99.90;;;;;;5050693;28;20448;-67
2022/06/28 00:08:06;;;;;;;6.40;4.97;;;16.90;99.90;;;;;;5050230;28;20487;-67
2022/06/28 00:10:33;;;;;;;7.90;4.10;;;16.90;99.90;;;;;;5050239;28;20934;-67
2022/06/28 00:13:00;;;;;;;6.60;4.90;;;16.90;99.90;;;;;;5050264;28;20467;-66
2022/06/28 00:18:12;;;;;;;6.30;5.40;;;16.80;99.90;;;;;;5050233;28;20470;-66
2022/06/28 00:20:39;;;;;;;10.37;6.10;;;16.70;99.90;;;;;;5049930;28;20452;-66
2022/06/28 00:23:06;;;;;;;5.30;4.80;;;16.70;99.90;;;;;;5050034;28;20468;-66
2022/06/28 00:25:33;;;;;;;6.70;5.00;;;16.70;99.90;;;;;;5049574;28;20815;-67
2022/06/28 00:28:00;;;;;;;6.10;5.00;;;16.90;99.90;;;;;;5050138;28;20488;-67
2022/06/28 00:30:29;;;;;;;7.30;5.20;;;16.90;99.90;;;;;;5049735;28;20980;-67
2022/06/28 00:32:55;;;;;;;9.60;4.97;;;17.00;99.90;;;;;;5049821;28;20472;-66
2022/06/28 00:35:24;;;;;;;6.70;4.97;;;16.90;99.90;;;;;;5049950;28;20464;-66
2022/06/28 00:37:50;;;;;;;7.17;4.43;;;16.90;99.90;;;;;;5049862;28;20479;-67
2022/06/28 00:40:17;;;;;;;6.30;4.20;;;16.90;99.90;;;;;;5049636;28;20444;-67
2022/06/28 00:42:44;;;;;;;7.00;3.60;;;16.80;99.90;;;;;;5051034;28;20464;-67
2022/06/28 00:45:12;;;;;;;3.30;3.00;;;16.70;99.90;;;;;;5050638;28;20444;-67
2022/06/28 00:47:40;;;;;;;3.33;3.00;;;16.70;99.90;;;;;;5049646;28;20957;-66
2022/06/28 00:50:08;;;;;;;4.43;3.10;;;16.60;99.90;;;;;;5049554;28;20545;-67
2022/06/28 00:52:35;;;;;;;6.10;3.27;;;16.70;99.90;;;;;;5049750;28;20467;-66
2022/06/28 00:55:02;;;;;;;4.13;3.33;;;16.60;99.90;;;;;;5049622;28;20837;-66
2022/06/28 00:57:29;;;;;;;4.77;3.47;;;16.60;99.90;;;;;;5050014;28;20470;-66
2022/06/28 00:59:55;;;;;;;5.13;3.50;;;16.50;99.90;;;;;;5049514;28;20451;-67
2022/06/28 01:02:22;;;;;;;5.00;2.93;;;16.50;99.90;;;;;;5050418;28;20475;-67
2022/06/28 01:04:50;;;;;;;9.83;4.70;;;16.50;99.90;;;;;;5050437;28;20945;-66
2022/06/28 01:07:17;;;;;;;6.20;3.07;;;16.50;99.90;;;;;;5050294;28;20514;-66
2022/06/28 01:09:44;;;;;;;4.20;2.80;;;16.50;99.90;;;;;;5050365;28;20494;-65
2022/06/28 01:12:11;;;;;;;4.43;3.27;;;16.40;99.90;;;;;;5050227;28;20452;-66
2022/06/28 01:14:38;;;;;;;6.73;3.70;;;16.40;99.90;;;;;;5049044;28;20475;-67
2022/06/28 01:17:05;;;;;;;5.23;3.20;;;16.40;99.90;;;;;;5047348;28;20440;-67
2022/06/28 01:19:31;;;;;;;7.80;3.57;;;16.30;99.90;;;;;;5048406;28;20961;-65
2022/06/28 01:22:00;;;;;;;5.53;3.53;;;16.30;99.90;;;;;;5048826;28;20432;-66
2022/06/28 01:24:29;;;;;;;5.67;3.80;;;16.30;99.90;;;;;;5049421;28;20448;-66
2022/06/28 01:26:57;;;;;;;4.10;3.70;;;16.40;99.90;;;;;;5049405;28;20622;-66
2022/06/28 01:29:24;;;;;;;6.97;2.97;;;16.40;99.90;;;;;;5048249;28;20492;-66
2022/06/28 01:31:50;;;;;;;4.10;2.97;;;16.30;99.90;;;;;;5048793;28;20827;-67
2022/06/28 01:34:19;;;;;;;4.10;3.20;;;16.30;99.90;;;;;;5048886;28;20463;-67
2022/06/28 01:36:46;;;;;;;5.90;2.70;;;16.40;99.90;;;;;;5049341;28;20821;-66
2022/06/28 01:39:12;;;;;;;3.07;2.70;;;16.20;99.90;;;;;;5052037;28;20889;-66
2022/06/28 01:41:43;;;;;;;5.50;3.60;;;16.30;99.90;;;;;;5052594;28;21146;-67
2022/06/28 01:44:10;;;;;;;4.70;3.30;;;16.40;99.90;;;;;;5051575;28;21000;-67
2022/06/28 01:46:39;;;;;;;3.40;3.10;;;16.50;99.90;;;;;;5052902;28;20538;-65
2022/06/28 01:49:07;;;;;;;4.53;2.70;;;16.50;99.90;;;;;;5050975;28;20724;-67
2022/06/28 01:51:34;;;;;;;4.40;3.07;;;16.40;99.90;;;;;;5052273;28;21114;-66
2022/06/28 01:54:00;;;;;;;4.33;3.20;;;16.50;99.90;;;;;;5052483;28;20464;-67
2022/06/28 01:56:27;;;;;;;5.83;3.27;;;16.60;99.90;;;;;;5052949;28;20444;-66
2022/06/28 01:58:56;;;;;;;7.33;4.37;;;16.70;99.90;;;;;;5052056;28;20455;-66
2022/06/28 02:01:23;;;;;;;5.80;3.23;;;16.60;99.90;;;;;;5051724;28;20451;-66
2022/06/28 02:03:51;;;;;;;5.20;3.43;;;16.60;99.90;;;;;;5052341;28;20831;-66
2022/06/28 02:06:18;;;;;;;5.40;3.03;;;16.70;99.90;;;;;;5052345;28;20440;-66
2022/06/28 02:08:45;;;;;;;5.30;3.57;;;16.70;99.90;;;;;;5052007;28;20491;-66
2022/06/28 02:11:12;;;;;;;4.93;3.30;;;16.60;99.90;;;;;;5051546;28;20456;-66
2022/06/28 02:13:39;;;;;;;4.77;3.70;;;16.50;99.90;;;;;;5052092;28;20466;-66
2022/06/28 02:16:07;;;;;;;3.70;3.13;;;16.50;99.90;;;;;;5052166;28;20818;-66
2022/06/28 02:18:34;;;;;;;6.00;2.93;;;16.40;99.90;;;;;;5052176;28;20443;-66
2022/06/28 02:21:01;;;;;;;15.67;3.53;;;16.40;99.90;;;;;;5052025;28;20930;-67
2022/06/28 02:23:28;;;;;;;3.87;2.97;;;16.40;99.90;;;;;;5052416;28;21037;-66
2022/06/28 02:25:56;;;;;;;5.70;3.10;;;16.30;99.90;;;;;;5052476;28;20542;-66
2022/06/28 02:28:23;;;;;;;4.37;3.27;;;16.20;99.90;;;;;;5052528;28;20571;-66
2022/06/28 02:30:50;;;;;;;6.47;3.60;;;16.00;99.90;;;;;;5051855;28;20447;-66
2022/06/28 02:33:18;;;;;;;5.60;3.20;;;16.00;99.90;;;;;;5052592;28;20467;-66
2022/06/28 02:41:22;;;;;;;4.60;2.60;;;15.90;99.90;;;;;;5052020;28;20536;-66
2022/06/28 02:43:48;;;;;;;4.07;3.40;;;15.80;99.90;;;;;;5052228;28;20460;-66
2022/06/28 02:46:15;;;;;;;6.40;3.20;;;15.80;99.90;;;;;;5052320;28;20872;-66
2022/06/28 02:48:43;;;;;;;7.97;3.37;;;15.70;99.90;;;;;;5051810;28;20575;-66
2022/06/28 02:51:10;;;;;;;5.10;3.80;;;15.70;99.90;;;;;;5051853;28;20482;-66
2022/06/28 02:53:37;;;;;;;5.23;3.80;;;15.60;99.90;;;;;;5051930;28;20484;-64
2022/06/28 02:56:04;;;;;;;5.00;3.30;;;15.50;99.90;;;;;;5052082;28;20467;-66
2022/06/28 02:58:31;;;;;;;4.93;3.53;;;15.40;99.90;;;;;;5052039;28;20444;-66
2022/06/28 03:00:58;;;;;;;6.23;3.20;;;15.40;99.90;;;;;;5051659;28;20440;-66
2022/06/28 03:03:25;;;;;;;5.93;2.93;;;15.30;99.90;;;;;;5051783;28;20468;-66
2022/06/28 03:05:53;;;;;;;5.63;3.40;;;15.20;99.90;;;;;;5051617;28;20452;-66
2022/06/28 03:08:20;;;;;;;7.73;4.17;;;15.20;99.90;;;;;;5051433;28;20456;-67
2022/06/28 03:10:47;;;;;;;5.07;3.50;;;15.20;99.90;;;;;;5051581;28;21045;-67
2022/06/28 03:13:14;;;;;;;8.20;3.50;;;15.10;99.90;;;;;;5051540;28;20470;-66
2022/06/28 03:15:41;;;;;;;4.50;2.93;;;15.10;99.90;;;;;;5051579;28;20448;-66
2022/06/28 03:18:08;;;;;;;7.43;3.67;;;15.10;99.90;;;;;;5051240;28;20906;-67
2022/06/28 03:20:34;;;;;;;7.63;3.77;;;15.10;99.90;;;;;;5051188;28;20444;-66
2022/06/28 03:23:03;;;;;;;4.33;3.80;;;15.10;99.90;;;;;;5051097;28;20468;-66
2022/06/28 03:25:29;;;;;;;5.60;3.47;;;15.20;99.90;;;;;;5051537;28;20479;-66
2022/06/28 03:27:56;;;;;;;6.33;3.43;;;15.20;99.90;;;;;;5051321;28;20459;-66
2022/06/28 03:30:23;;;;;;;7.10;3.60;;;15.20;99.90;;;;;;5051120;28;20488;-67
2022/06/28 03:32:50;;;;;;;5.43;3.60;;;15.20;99.90;;;;;;5051001;28;20464;-66
2022/06/28 03:35:17;;;;;;;7.47;3.70;;;15.20;99.90;;;;;;5051022;28;20462;-66
2022/06/28 03:37:44;;;;;;;4.93;3.33;;;15.20;99.90;;;;;;5051193;28;20456;-66
2022/06/28 03:40:12;;;;;;;5.67;3.40;;;15.30;99.90;;;;;;5050990;28;20446;-67
2022/06/28 03:42:39;;;;;;;7.50;3.80;;;15.30;99.90;;;;;;5050897;28;20562;-67
2022/06/28 03:45:07;;;;;;;8.03;3.77;;;15.30;99.90;;;;;;5051086;28;20873;-66
2022/06/28 03:47:34;;;;;;;6.23;4.13;;;15.40;99.90;;;;;;5051123;28;20451;-67
2022/06/28 03:50:01;;;;;;;8.37;4.30;;;15.40;99.90;;;;;;5050225;28;20483;-66
2022/06/28 03:52:29;;;;;;;5.20;4.23;;;15.40;99.90;;;;;;5050867;28;20467;-66
2022/06/28 03:54:56;;;;;;;6.50;4.57;;;15.40;99.90;;;;;;5050548;28;20980;-66
2022/06/28 03:57:25;;;;;;;6.30;3.90;;;15.50;99.90;;;;;;5050640;28;20448;-67
2022/06/28 03:59:52;;;;;;;6.07;4.60;;;15.60;99.90;;;;;;5049436;28;20444;-66
2022/06/28 04:02:19;;;;;;;5.00;4.50;;;15.80;99.90;;;;;;5050196;28;20464;-66
2022/06/28 04:04:46;;;;;;;5.87;4.03;;;15.80;99.90;;;;;;5050374;28;20446;-67
2022/06/28 04:07:13;;;;;;;6.17;3.57;;;15.90;99.90;;;;;;5050501;28;20463;-65
2022/06/28 04:09:40;;;;;;;4.80;4.00;;;15.90;99.90;;;;;;5049771;28;20482;-65
2022/06/28 04:12:07;;;;;;;7.50;3.70;;;16.00;99.90;;;;;;5049729;28;20452;-65
2022/06/28 04:14:35;;;;;;;6.13;4.00;;;16.10;99.90;;;;;;5049528;28;20440;-65
2022/06/28 04:17:02;;;;;;;14.90;4.17;;;16.10;99.90;;;;;;5050269;28;20455;-66
2022/06/28 04:19:29;;;;;;;6.87;3.50;;;16.10;99.90;;;;;;5050645;28;20440;-66
2022/06/28 04:21:56;;;;;;;7.37;3.87;;;16.10;99.90;;;;;;5050446;28;20464;-65
2022/06/28 04:24:23;;;;;;;5.40;3.63;;;16.10;99.90;;;;;;5050488;28;20990;-66
2022/06/28 04:26:50;;;;;;;9.50;4.07;;;16.10;99.90;;;;;;5050067;28;20448;-65
2022/06/28 04:29:17;;;;;;;8.17;4.37;;;16.20;99.90;;;;;;5050097;28;20484;-63
2022/06/28 04:31:45;;;;;;;6.80;3.53;;;16.30;99.90;;;;;;5049789;28;20455;-66
2022/06/28 04:34:12;;;;;;;7.90;4.17;;;16.40;99.90;;;;;;5050265;28;20479;-67
2022/06/28 04:36:39;;;;;;;8.80;4.77;;;16.50;99.90;;;;;;5042465;28;20478;-65
2022/06/28 04:39:06;;;;;;;5.20;4.23;;;16.60;99.90;;;;;;5039467;28;20440;-67
2022/06/28 04:41:32;;;;;;;5.00;4.50;;;16.70;99.90;;;;;;5044632;28;20452;-66
2022/06/28 04:43:59;;;;;;;5.00;4.23;;;16.70;99.90;;;;;;5048409;28;20872;-66
2022/06/28 04:46:26;;;;;;;6.17;4.80;;;16.80;99.90;;;;;;5048797;28;20483;-66
2022/06/28 04:48:54;;;;;;;8.73;4.63;;;16.90;99.90;;;;;;5048605;28;20842;-65
2022/06/28 04:51:21;;;;;;;5.90;4.10;;;17.00;99.90;;;;;;5044772;28;20448;-65
2022/06/28 04:53:48;;;;;;;12.03;4.00;;;17.00;99.90;;;;;;5041841;28;20470;-66
2022/06/28 04:56:16;;;;;;;9.10;4.83;;;17.10;99.90;;;;;;5048397;28;20445;-66
2022/06/28 04:58:43;;;;;;;5.93;4.50;;;17.10;99.90;;;;;;5043168;28;20985;-66
2022/06/28 05:01:10;;;;;;;8.30;4.70;;;17.20;99.90;;;;;;5043037;28;20531;-66
2022/06/28 05:03:38;;;;;;;11.70;5.13;;;17.30;99.90;;;;;;5046843;28;20487;-66
2022/06/28 05:06:06;;;;;;;6.80;5.20;;;17.40;99.90;;;;;;5045770;28;20972;-65
2022/06/28 05:08:33;;;;;;;6.80;6.10;;;17.40;99.90;;;;;;5042628;28;20849;-66
2022/06/28 05:11:00;;;;;;;7.10;6.33;;;17.30;99.90;;;;;;5044142;28;20564;-65
2022/06/28 05:13:27;;;;;;;9.60;6.30;;;17.30;99.90;;;;;;5050789;28;20537;-66
2022/06/28 05:15:54;;;;;;;9.57;5.10;;;17.40;99.90;;;;;;5048660;28;21009;-65
2022/06/28 05:18:20;;;;;;;8.67;5.10;;;17.50;99.90;;;;;;5047373;28;20471;-66
2022/06/28 05:20:47;;;;;;;5.83;4.63;;;17.60;99.90;;;;;;5036913;28;20441;-66
2022/06/28 05:23:15;;;;;;;7.40;5.47;;;17.60;99.90;;;;;;5032646;28;20472;-66
2022/06/28 05:25:42;;;;;;;9.40;5.67;;;17.70;99.90;;;;;;5031179;28;20452;-66
2022/06/28 05:28:09;;;;;;;5.90;4.10;;;17.80;99.90;;;;;;5032277;28;20951;-66
2022/06/28 05:30:36;;;;;;;10.00;4.10;;;18.00;99.90;;;;;;5032206;28;20476;-66
2022/06/28 05:33:03;;;;;;;5.13;4.50;;;18.10;99.90;;;;;;5032675;28;20464;-68
2022/06/28 05:35:30;;;;;;;5.40;4.73;;;18.10;99.90;;;;;;5033402;28;20459;-64
2022/06/28 05:37:57;;;;;;;8.00;4.83;;;18.30;99.90;;;;;;5033509;28;20459;-65
2022/06/28 05:40:25;;;;;;;7.87;5.13;;;18.30;99.90;;;;;;5033420;28;20445;-64
2022/06/28 05:42:52;;;;;;;6.10;5.10;;;18.30;99.90;;;;;;5033742;28;20501;-65
2022/06/28 05:45:19;;;;;;;8.17;5.70;;;18.40;99.90;;;;;;5033712;28;20451;-65
2022/06/28 05:47:46;;;;;;;10.13;5.90;;;18.30;99.90;;;;;;5033596;28;20853;-66
2022/06/28 05:50:13;;;;;;;7.30;6.20;;;18.50;99.90;;;;;;5033058;28;20486;-66
2022/06/28 05:52:40;;;;;;;8.53;7.63;;;18.60;99.90;;;;;;5033112;28;20468;-66
2022/06/28 05:55:07;;;;;;;12.23;7.07;;;18.60;99.90;;;;;;5033540;28;20922;-66
2022/06/28 05:57:35;;;;;;;7.13;6.30;;;18.50;99.90;;;;;;5032944;28;20449;-66
2022/06/28 06:00:03;;;;;;;8.77;7.57;;;18.40;99.90;;;;;;5032814;28;21034;-66
2022/06/28 06:02:30;;;;;;;10.83;8.87;;;18.40;99.90;;;;;;5033376;28;20842;-66
2022/06/28 06:04:57;;;;;;;9.07;8.27;;;18.50;99.90;;;;;;5033086;28;20539;-66
2022/06/28 06:07:23;;;;;;;13.23;9.03;;;18.60;99.90;;;;;;5032915;28;20469;-65
2022/06/28 06:09:50;;;;;;;10.13;9.07;;;18.60;99.90;;;;;;5032796;28;20491;-65
2022/06/28 06:12:17;;;;;;;10.27;8.73;;;18.60;99.90;;;;;;5032677;28;20453;-65
2022/06/28 06:14:45;;;;;;;14.00;9.50;;;18.60;99.90;;;;;;5032879;28;20452;-65
2022/06/28 06:17:12;;;;;;;12.67;9.30;;;18.80;99.90;;;;;;5032827;28;20472;-65
2022/06/28 06:19:39;;;;;;;8.50;7.60;;;18.90;99.90;;;;;;5032535;28;20441;-66
2022/06/28 06:22:06;;;;;;;8.90;8.07;;;19.00;99.90;;;;;;5032060;28;20449;-65
2022/06/28 06:24:33;;;;;;;10.80;8.17;;;18.90;99.90;;;;;;5031875;28;20460;-66
2022/06/28 06:26:59;;;;;;;8.47;7.60;;;19.10;99.90;;;;;;5031994;28;20540;-66
2022/06/28 06:29:26;;;;;;;8.83;8.03;;;19.10;99.90;;;;;;5031372;28;20536;-66
2022/06/28 06:31:55;;;;;;;9.40;7.90;;;19.20;99.90;;;;;;5032182;28;20962;-66
2022/06/28 06:34:22;;;;;;;8.60;7.33;;;19.30;99.90;;;;;;5032525;28;20468;-65
2022/06/28 06:36:48;;;;;;;7.57;6.77;;;19.40;99.90;;;;;;5032332;28;20453;-66
2022/06/28 06:39:15;;;;;;;6.90;6.30;;;19.50;99.90;;;;;;5032269;28;20482;-66
2022/06/28 06:41:42;;;;;;;7.20;6.60;;;19.70;99.90;;;;;;5031896;28;20449;-66
2022/06/28 06:44:09;;;;;;;7.20;6.50;;;19.80;99.90;;;;;;5031970;28;20480;-66
2022/06/28 06:46:36;;;;;;;7.23;6.63;;;19.80;99.90;;;;;;5032348;28;21069;-66
2022/06/28 06:49:05;;;;;;;6.63;6.03;;;19.80;99.90;;;;;;5034998;28;20448;-67
2022/06/28 06:51:32;;;;;;;9.97;5.70;;;20.10;99.90;;;;;;5050756;28;20576;-66
2022/06/28 06:53:59;;;;;;;7.50;6.80;;;20.50;99.90;;;;;;5048665;28;20546;-66
2022/06/28 06:56:26;;;;;;;7.40;6.70;;;20.90;99.90;;;;;;5050334;28;20455;-66
2022/06/28 06:58:53;;;;;;;8.77;6.73;;;21.40;99.90;;;;;;5049636;28;20452;-66
2022/06/28 07:01:20;;;;;;;7.00;6.17;;;21.40;99.90;;;;;;5048597;28;20440;-65
2022/06/28 07:03:47;;;;;;;7.53;6.30;;;21.50;99.90;;;;;;5044616;28;20571;-66
2022/06/28 07:06:15;;;;;;;5.93;5.43;;;21.80;99.90;;;;;;5052201;28;20458;-67
2022/06/28 07:08:42;;;;;;;6.10;5.50;;;22.10;99.90;;;;;;5043696;28;20455;-67
2022/06/28 07:11:10;;;;;;;7.50;6.30;;;21.90;99.90;;;;;;5044110;28;20558;-66
2022/06/28 07:13:37;;;;;;;7.10;6.33;;;21.70;99.90;;;;;;5051372;28;20479;-67
2022/06/28 07:16:04;;;;;;;7.10;6.40;;;21.40;99.90;;;;;;5052015;28;20527;-66
2022/06/28 07:18:31;;;;;;;8.07;7.27;;;21.40;99.90;;;;;;5044373;28;20465;-66
2022/06/28 07:20:58;;;;;;;7.20;6.37;;;21.40;99.90;;;;;;5047545;28;21106;-67
2022/06/28 07:23:26;;;;;;;7.43;6.73;;;21.10;99.90;;;;;;5041271;28;20475;-67
2022/06/28 07:25:53;;;;;;;7.10;6.27;;;21.00;99.90;;;;;;5033950;28;20449;-66
2022/06/28 07:28:20;;;;;;;8.23;6.97;;;20.70;99.90;;;;;;5048409;28;20451;-66
2022/06/28 07:30:47;;;;;;;7.67;6.97;;;20.70;99.90;;;;;;5050401;28;20492;-67
2022/06/28 07:33:15;;;;;;;7.10;6.50;;;20.50;99.90;;;;;;5051019;28;20463;-66
2022/06/28 07:35:42;;;;;;;6.30;5.80;;;20.30;99.90;;;;;;5050616;28;20452;-66
2022/06/28 07:38:09;;;;;;;7.90;6.40;;;20.10;99.90;;;;;;5050878;28;20451;-66
2022/06/28 07:40:37;;;;;;;7.60;7.00;;;20.40;99.90;;;;;;5050445;28;20527;-66
2022/06/28 07:43:04;;;;;;;6.50;5.40;;;20.70;99.90;;;;;;5050726;28;20472;-65
2022/06/28 07:45:36;;;;;;;7.90;6.80;;;21.30;99.90;;;;;;5051412;28;20444;-67
2022/06/28 07:48:03;;;;;;;5.40;4.90;;;21.90;99.90;;;;;;5051784;28;20564;-66
2022/06/28 07:53:13;;;;;;;6.00;5.50;;;22.70;99.90;;;;;;5046463;28;20526;-67
2022/06/28 07:55:42;;;;;;;6.47;5.90;;;22.80;99.90;;;;;;5043537;28;20444;-67
2022/06/28 07:58:08;;;;;;;7.13;6.43;;;22.50;99.90;;;;;;5044333;28;20443;-66
2022/06/28 08:00:35;;;;;;;7.33;6.63;;;22.50;99.90;;;;;;5047464;28;20450;-66
2022/06/28 08:03:02;;;;;;;7.30;6.60;;;22.60;99.90;;;;;;5035195;28;20959;-66
2022/06/28 08:05:29;;;;;;;6.47;5.97;;;22.00;99.90;;;;;;5030457;28;20768;-67
2022/06/28 08:07:56;;;;;;;7.10;6.40;;;21.80;99.90;;;;;;5030536;28;20479;-64
2022/06/28 08:10:23;;;;;;;8.97;5.93;;;21.60;99.90;;;;;;5048149;28;20498;-67
2022/06/28 08:12:51;;;;;;;6.17;5.57;;;21.60;99.90;;;;;;5043047;28;20482;-66
2022/06/28 08:15:18;;;;;;;5.73;5.23;;;21.40;99.90;;;;;;5048664;28;20447;-65
2022/06/28 08:17:44;;;;;;;7.37;6.17;;;21.50;99.90;;;;;;5042628;28;20453;-66
2022/06/28 08:20:12;;;;;;;7.97;7.20;;;21.50;99.90;;;;;;5029290;28;20457;-66
2022/06/28 08:22:38;;;;;;;7.13;6.43;;;21.00;99.90;;;;;;5030243;28;20844;-67
2022/06/28 08:25:07;;;;;;;8.60;6.50;;;20.90;99.90;;;;;;5038945;28;20782;-67
2022/06/28 08:27:33;;;;;;;7.20;6.60;;;21.10;99.90;;;;;;5060648;28;20447;-67
2022/06/28 08:30:02;;;;;;;6.20;5.60;;;21.40;99.90;;;;;;5069441;28;20447;-67
2022/06/28 08:32:28;;;;;;;4.83;4.33;;;21.50;99.90;;;;;;5069406;28;21001;-67
2022/06/28 08:34:55;;;;;;;4.97;4.47;;;22.10;99.90;;;;;;5069786;28;20453;-67
2022/06/28 08:37:22;;;;;;;5.20;4.70;;;22.50;99.90;;;;;;5069842;28;20459;-66
2022/06/28 08:39:49;;;;;;;5.87;5.37;;;23.10;99.90;;;;;;5069314;28;20443;-67
2022/06/28 08:42:23;;;;;;;4.80;4.30;;;23.10;99.90;;;;;;5069692;28;20478;-67
2022/06/28 08:44:51;;;;;;;5.90;4.47;;;23.50;99.90;;;;;;5057095;28;20454;-67
2022/06/28 08:47:21;;;;;;;4.27;3.87;;;24.10;99.90;;;;;;5049318;28;20444;-67
2022/06/28 08:49:54;;;;;;;4.90;3.90;;;24.90;99.90;;;;;;5049958;28;20455;-67
2022/06/28 08:52:23;;;;;;;4.57;4.07;;;25.10;99.90;;;;;;5049755;28;20499;-67
2022/06/28 08:54:51;;;;;;;4.30;3.70;;;25.20;99.90;;;;;;5049992;28;20534;-67
2022/06/28 08:57:19;;;;;;;3.97;3.57;;;25.50;99.90;;;;;;5049793;28;20846;-66
2022/06/28 08:59:48;;;;;;;4.83;3.00;;;25.30;99.90;;;;;;5049525;28;20456;-67
2022/06/28 09:02:16;;;;;;;4.30;3.30;;;24.90;99.90;;;;;;5049454;28;20974;-67
2022/06/28 09:04:49;;;;;;;5.00;3.17;;;24.50;99.90;;;;;;5049947;28;20448;-67
2022/06/28 09:07:16;;;;;;;3.70;2.97;;;24.50;99.90;;;;;;5049529;28;20452;-67
2022/06/28 09:09:44;;;;;;;3.57;2.60;;;24.80;99.90;;;;;;5049468;28;20443;-66
2022/06/28 09:12:11;;;;;;;3.10;2.57;;;25.10;99.90;;;;;;5048916;28;20480;-67
2022/06/28 09:14:38;;;;;;;5.77;3.10;;;25.40;99.90;;;;;;5045945;28;20507;-67
2022/06/28 09:17:23;;;;;;;4.20;3.50;;;25.90;99.90;;;;;;5035606;28;20437;-66
2022/06/28 09:19:55;;;;;;;12.77;4.97;;;25.80;99.90;;;;;;5035203;28;20429;-66
2022/06/28 09:22:33;;;;;;;4.77;3.10;;;25.40;99.90;;;;;;5029206;28;20457;-66
2022/06/28 09:25:02;;;;;;;5.10;2.53;;;24.80;99.90;;;;;;5029668;28;20819;-66
2022/06/28 09:27:30;;;;;;;4.97;3.30;;;24.20;99.90;;;;;;5029431;28;20955;-66
2022/06/28 09:29:57;;;;;;;4.97;3.80;;;23.60;99.90;;;;;;5029170;28;20647;-66
2022/06/28 09:32:30;;;;;;;3.90;3.07;;;23.40;99.90;;;;;;5029121;28;21021;-67
2022/06/28 09:35:00;;;;;;;3.00;1.90;;;23.80;99.90;;;;;;5028939;28;20448;-67
2022/06/28 09:37:39;;;;;;;3.90;2.30;;;24.40;99.90;;;;;;5029509;28;20452;-66
2022/06/28 09:40:15;;;;;;;6.63;2.30;;;24.90;99.90;;;;;;5029047;28;20452;-67
2022/06/28 09:42:44;;;;;;;2.80;2.00;;;24.70;99.90;;;;;;5039105;28;20475;-66
2022/06/28 09:45:12;;;;;;;3.50;2.40;;;24.80;99.90;;;;;;5046483;28;20442;-67
2022/06/28 09:47:43;;;;;;;3.47;2.33;;;24.70;99.90;;;;;;5042458;28;20442;-66
2022/06/28 09:50:13;;;;;;;2.93;2.33;;;24.70;99.90;;;;;;5037982;28;20506;-65
2022/06/28 09:52:45;;;;;;;4.33;2.47;;;24.80;99.90;;;;;;5029139;28;20484;-67
2022/06/28 09:55:14;;;;;;;4.40;1.83;;;25.20;99.90;;;;;;5029188;28;20452;-67
2022/06/28 09:57:43;;;;;;;3.00;2.30;;;25.30;99.90;;;;;;5029099;28;20457;-67
2022/06/28 10:00:11;;;;;;;3.70;2.50;;;25.60;99.90;;;;;;5035427;28;20510;-67
2022/06/28 10:02:38;;;;;;;2.57;2.27;;;25.60;99.90;;;;;;5044323;28;20471;-67
2022/06/28 10:05:06;;;;;;;3.73;2.40;;;25.00;99.90;;;;;;5043478;28;20448;-67
2022/06/28 10:07:34;;;;;;;2.50;2.20;;;25.30;99.90;;;;;;5042781;28;20464;-67
2022/06/28 10:10:05;;;;;;;2.70;1.93;;;26.30;99.90;;;;;;5032270;28;20472;-67
2022/06/28 10:15:19;;;;;;;2.33;1.87;;;27.70;99.90;;;;;;5032669;28;20494;-67
2022/06/28 10:17:53;;;;;;;2.77;2.03;;;28.00;99.90;;;;;;5041573;28;20968;-67
2022/06/28 10:20:24;;;;;;;4.23;2.40;;;27.30;99.90;;;;;;5048920;28;20443;-67
2022/06/28 10:22:53;;;;;;;2.43;1.77;;;27.60;99.90;;;;;;5052026;28;20868;-67
2022/06/28 10:25:22;;;;;;;2.67;2.30;;;27.20;99.90;;;;;;5052328;28;20455;-66
2022/06/28 10:27:51;;;;;;;4.60;2.67;;;26.50;99.90;;;;;;5052108;28;20458;-67
2022/06/28 10:30:26;;;;;;;3.20;2.70;;;25.10;99.90;;;;;;5051619;28;20981;-66
2022/06/28 10:32:56;;;;;;;2.70;2.10;;;24.80;99.90;;;;;;5047861;28;20584;-67
2022/06/28 10:36:05;;;;;;;3.10;2.10;;;24.60;99.90;;;;;;5043938;28;20861;-66
2022/06/28 10:38:33;;;;;;;5.70;2.20;;;25.20;99.90;;;;;;5048408;28;20462;-66
2022/06/28 10:41:14;;;;;;;3.50;1.93;;;26.30;99.90;;;;;;5040778;28;20495;-67
2022/06/28 10:43:50;;;;;;;2.60;1.67;;;25.60;99.90;;;;;;5034565;28;20480;-66
2022/06/28 10:46:17;;;;;;;3.40;2.00;;;25.30;99.90;;;;;;5045899;28;20436;-68
2022/06/28 10:49:06;;;;;;;4.07;2.00;;;25.30;99.90;;;;;;5035259;28;20479;-66
2022/06/28 10:51:33;;;;;;;2.80;1.93;;;26.00;99.90;;;;;;5042379;28;20887;-67
2022/06/28 10:54:06;;;;;;;2.90;1.70;;;26.60;99.90;;;;;;5034601;28;20476;-67
2022/06/28 10:56:37;;;;;;;3.30;2.00;;;26.90;99.90;;;;;;5031624;28;20452;-67
2022/06/28 10:59:05;;;;;;;2.33;1.70;;;27.50;99.90;;;;;;5032040;28;20453;-67
2022/06/28 11:01:55;;;;;;;3.13;1.60;;;28.00;99.90;;;;;;5039252;28;20440;-67
2022/06/28 11:04:30;;;;;;;3.50;1.60;;;28.30;99.90;;;;;;5049450;28;20522;-67
2022/06/28 11:07:05;;;;;;;3.37;1.50;;;28.00;99.90;;;;;;5045848;28;20535;-67
2022/06/28 11:09:48;;;;;;;3.60;1.90;;;28.70;99.90;;;;;;5036375;28;20491;-67
2022/06/28 11:12:16;;;;;;;2.30;1.20;;;29.60;99.60;;;;;;5031398;28;20488;-67
2022/06/28 11:14:49;;;;;;;2.53;1.30;;;29.90;97.50;;;;;;5031581;28;20449;-67
2022/06/28 11:17:18;;;;;;;2.33;1.43;;;30.00;95.80;;;;;;5031247;28;20558;-67
2022/06/28 11:19:52;;;;;;;3.43;1.20;;;29.90;94.80;;;;;;5031326;28;20449;-66
2022/06/28 11:22:20;;;;;;;2.20;1.50;;;29.50;93.50;;;;;;5031119;28;20449;-66
2022/06/28 11:24:49;;;;;;;2.03;1.30;;;28.80;95.00;;;;;;5036806;28;20484;-67
2022/06/28 11:27:22;;;;;;;3.33;1.53;;;29.40;97.10;;;;;;5051206;28;20448;-67
2022/06/28 11:29:51;;;;;;;2.60;1.50;;;28.40;96.20;;;;;;5050572;28;20494;-67
2022/06/28 11:32:21;;;;;;;2.20;1.40;;;27.60;97.30;;;;;;5049297;28;20527;-64
2022/06/28 11:34:58;;;;;;;2.27;1.60;;;27.00;99.90;;;;;;5047947;28;20448;-66
2022/06/28 11:37:26;;;;;;;2.30;1.40;;;27.50;99.90;;;;;;5042234;28;20483;-65
2022/06/28 11:39:57;;;;;;;2.37;1.47;;;27.40;97.90;;;;;;5038091;28;20452;-65
2022/06/28 11:42:24;;;;;;;2.73;1.30;;;27.10;98.90;;;;;;5043168;28;21015;-65
2022/06/28 11:44:51;;;;;;;3.10;1.80;;;26.60;98.10;;;;;;5043113;28;20455;-65
2022/06/28 11:47:20;;;;;;;4.07;2.90;;;26.70;99.90;;;;;;5043238;28;20450;-65
2022/06/28 11:50:05;;;;;;;3.10;2.10;;;26.80;99.30;;;;;;5038548;28;20452;-64
2022/06/28 11:52:32;;;;;;;4.93;1.90;;;27.50;99.10;;;;;;5043787;28;20487;-67
2022/06/28 11:55:01;;;;;;;3.40;1.70;;;27.00;99.30;;;;;;5041073;28;20452;-67
2022/06/28 11:57:27;;;;;;;2.50;1.40;;;27.80;98.00;;;;;;5039513;28;20448;-66
2022/06/28 11:59:57;;;;;;;2.70;1.57;;;28.10;97.80;;;;;;5049501;28;20452;-67
2022/06/28 12:02:41;;;;;;;2.57;1.43;;;28.30;95.90;;;;;;5049543;28;20846;-67
2022/06/28 12:05:10;;;;;;;2.20;1.20;;;28.50;99.00;;;;;;5045510;28;20447;-67
2022/06/28 12:07:39;;;;;;;3.13;1.43;;;29.10;97.90;;;;;;5048628;28;20466;-67
2022/06/28 12:10:19;;;;;;;2.70;1.20;;;29.50;93.50;;;;;;5046269;28;20451;-67
2022/06/28 12:12:46;;;;;;;1.93;1.23;;;29.90;95.60;;;;;;5049664;28;20587;-67
2022/06/28 12:15:13;;;;;;;2.00;1.30;;;30.50;93.90;;;;;;5048985;28;20930;-67
2022/06/28 12:17:47;;;;;;;2.70;1.23;;;30.90;94.80;;;;;;5049527;28;21000;-67
2022/06/28 12:20:16;;;;;;;2.10;1.20;;;31.20;91.70;;;;;;5045519;28;22368;-67
2022/06/28 12:22:43;;;;;;;2.77;1.30;;;31.50;91.50;;;;;;5048132;28;20560;-67
2022/06/28 12:25:12;;;;;;;2.20;1.30;;;31.50;86.20;;;;;;5039552;28;20438;-67
2022/06/28 12:27:39;;;;;;;2.53;1.20;;;30.60;89.60;;;;;;5050196;28;20439;-67
2022/06/28 12:30:08;;;;;;;5.00;1.50;;;29.80;91.90;;;;;;5049759;28;20459;-67
2022/06/28 12:32:35;;;;;;;3.20;1.50;;;29.50;93.60;;;;;;5050129;28;20484;-67
2022/06/28 12:35:04;;;;;;;3.40;1.43;;;29.80;92.40;;;;;;5050192;28;20444;-68
2022/06/28 12:37:31;;;;;;;3.23;1.60;;;30.10;94.30;;;;;;5049704;28;20447;-68
2022/06/28 12:39:58;;;;;;;4.00;1.43;;;29.80;92.40;;;;;;5049679;28;20459;-67
2022/06/28 12:42:27;;;;;;;2.40;1.23;;;30.30;94.10;;;;;;5050042;28;20464;-67
2022/06/28 12:44:56;;;;;;;3.00;1.40;;;30.70;94.60;;;;;;5049893;28;20455;-65
2022/06/28 12:47:23;;;;;;;2.37;1.20;;;31.10;91.30;;;;;;5049650;28;20854;-67
2022/06/28 12:49:50;;;;;;;2.40;1.50;;;31.00;90.40;;;;;;5049362;28;20454;-67
2022/06/28 12:52:16;;;;;;;2.13;1.40;;;30.70;90.80;;;;;;5049785;28;20479;-67
2022/06/28 12:54:43;;;;;;;2.23;1.10;;;30.70;91.70;;;;;;5049679;28;20523;-67
2022/06/28 12:57:10;;;;;;;2.60;1.60;;;30.60;90.90;;;;;;5049775;28;20455;-67
2022/06/28 12:59:38;;;;;;;2.20;1.43;;;30.70;91.40;;;;;;5049547;28;20463;-66
2022/06/28 13:02:05;;;;;;;3.93;1.67;;;30.10;88.50;;;;;;5044803;28;20444;-65
2022/06/28 13:04:33;;;;;;;2.80;1.57;;;29.30;92.10;;;;;;5044775;28;20461;-65